createdAt,value
2022-11-17T00:01:08.967Z,6.20
2022-11-17T00:03:38.680Z,6.20
2022-11-17T00:06:08.935Z,5.40
2022-11-17T00:08:38.830Z,5.80
2022-11-17T00:11:09.634Z,4.70
2022-11-17T00:13:57.462Z,5.60
2022-11-17T00:16:27.337Z,5.40
2022-11-17T00:19:15.066Z,5.40
2022-11-17T00:21:44.772Z,6.10
2022-11-17T00:24:18.920Z,5.90
2022-11-17T00:27:01.240Z,6.00
2022-11-17T00:29:31.267Z,5.80
2022-11-17T00:32:19.277Z,5.40
2022-11-17T00:34:49.284Z,6.00
2022-11-17T00:37:19.198Z,6.90
2022-11-17T00:39:49.048Z,6.00
2022-11-17T00:42:18.961Z,6.60
2022-11-17T00:44:48.883Z,6.30
2022-11-17T00:47:18.745Z,6.30
2022-11-17T00:49:48.489Z,6.30
2022-11-17T00:52:18.506Z,6.90
2022-11-17T00:54:48.378Z,6.90
2022-11-17T00:57:18.342Z,6.80
2022-11-17T00:59:48.152Z,6.80
2022-11-17T01:02:18.025Z,6.20
2022-11-17T01:04:47.948Z,5.50
2022-11-17T01:07:17.851Z,6.20
2022-11-17T01:09:48.106Z,6.70
2022-11-17T01:12:18.072Z,7.80
2022-11-17T01:14:48.733Z,7.10
2022-11-17T01:17:18.719Z,6.90
2022-11-17T01:19:50.656Z,7.40
2022-11-17T01:22:20.406Z,5.80
2022-11-17T01:24:50.177Z,7.40
2022-11-17T01:27:20.144Z,7.10
2022-11-17T01:29:50.047Z,7.80
2022-11-17T01:32:19.953Z,7.30
2022-11-17T01:34:49.804Z,7.30
2022-11-17T01:37:19.622Z,7.00
2022-11-17T01:39:50.512Z,6.80
2022-11-17T01:42:24.256Z,7.60
2022-11-17T01:45:01.233Z,7.40
2022-11-17T01:47:46.818Z,7.50
2022-11-17T01:50:29.936Z,7.50
2022-11-17T01:53:03.845Z,7.50
2022-11-17T01:55:38.906Z,6.40
2022-11-17T01:58:14.319Z,7.20
2022-11-17T02:00:43.913Z,8.10
2022-11-17T02:03:15.129Z,7.70
2022-11-17T02:05:54.440Z,8.10
2022-11-17T02:08:31.109Z,7.00
2022-11-17T02:11:07.146Z,7.20
2022-11-17T02:13:41.089Z,8.50
2022-11-17T02:16:15.647Z,7.80
2022-11-17T02:18:49.510Z,8.00
2022-11-17T02:22:10.141Z,7.30
2022-11-17T02:25:09.256Z,7.70
2022-11-17T02:28:04.092Z,8.00
2022-11-17T02:30:44.676Z,7.70
2022-11-17T02:33:31.736Z,7.90
2022-11-17T02:36:12.140Z,8.00
2022-11-17T02:38:49.650Z,7.80
2022-11-17T02:41:29.116Z,7.70
2022-11-17T02:44:10.120Z,8.30
2022-11-17T02:46:49.116Z,8.10
2022-11-17T02:49:28.148Z,8.30
2022-11-17T02:52:03.138Z,8.50
2022-11-17T02:54:35.106Z,8.30
2022-11-17T02:57:07.134Z,8.70
2022-11-17T02:59:47.116Z,7.30
2022-11-17T03:11:01.115Z,9.30
2022-11-17T03:13:49.349Z,8.50
2022-11-17T03:16:37.385Z,9.50
2022-11-17T03:19:21.492Z,9.70
2022-11-17T03:22:09.040Z,8.70
2022-11-17T03:24:49.079Z,8.70
2022-11-17T03:27:29.011Z,9.20
2022-11-17T03:30:06.817Z,8.10
2022-11-17T03:32:45.081Z,9.10
2022-11-17T03:35:25.384Z,9.60
2022-11-17T03:38:03.766Z,7.50
2022-11-17T03:40:44.463Z,8.30
2022-11-17T03:43:21.713Z,9.30
2022-11-17T03:46:02.004Z,8.70
2022-11-17T03:48:45.796Z,8.50
2022-11-17T03:51:22.977Z,8.60
2022-11-17T03:53:57.378Z,9.60
2022-11-17T03:56:45.788Z,8.20
2022-11-17T03:59:25.712Z,8.40
2022-11-17T04:02:00.032Z,8.70
2022-11-17T04:04:47.723Z,7.80
2022-11-17T04:07:21.589Z,7.90
2022-11-17T04:09:55.565Z,8.20
2022-11-17T04:12:47.656Z,7.80
2022-11-17T04:15:39.936Z,9.10
2022-11-17T04:18:13.946Z,9.10
2022-11-17T04:20:50.964Z,7.00
2022-11-17T04:23:26.080Z,8.20
2022-11-17T04:26:18.458Z,8.30
2022-11-17T04:28:53.615Z,8.90
2022-11-17T04:31:30.768Z,8.00
2022-11-17T04:34:07.954Z,8.90
2022-11-17T04:36:46.945Z,7.90
2022-11-17T04:39:20.957Z,7.90
2022-11-17T04:41:54.956Z,7.20
2022-11-17T04:44:31.467Z,8.90
2022-11-17T04:47:07.057Z,9.00
2022-11-17T04:49:40.885Z,8.40
2022-11-17T04:52:14.589Z,8.10
2022-11-17T04:54:48.403Z,7.60
2022-11-17T04:57:22.098Z,9.80
2022-11-17T04:59:56.068Z,7.80
2022-11-17T05:02:30.147Z,8.90
2022-11-17T05:05:04.228Z,7.40
2022-11-17T05:07:38.241Z,7.50
2022-11-17T05:10:15.169Z,8.70
2022-11-17T05:13:06.438Z,8.20
2022-11-17T05:16:09.412Z,8.70
2022-11-17T05:18:44.978Z,8.40
2022-11-17T05:21:18.882Z,8.60
2022-11-17T05:23:55.556Z,8.80
2022-11-17T05:26:31.854Z,8.90
2022-11-17T05:29:08.695Z,8.40
2022-11-17T05:31:42.902Z,9.10
2022-11-17T05:34:19.485Z,7.50
2022-11-17T05:36:53.393Z,7.30
2022-11-17T05:39:30.119Z,8.90
2022-11-17T05:42:03.980Z,8.50
2022-11-17T05:44:37.989Z,9.30
2022-11-17T05:47:11.993Z,8.50
2022-11-17T05:49:46.018Z,9.00
2022-11-17T05:52:20.222Z,8.60
2022-11-17T05:54:53.927Z,9.90
2022-11-17T05:57:33.871Z,9.90
2022-11-17T06:00:11.433Z,9.50
2022-11-17T06:02:58.466Z,9.50
2022-11-17T06:05:32.318Z,8.10
2022-11-17T06:08:07.276Z,9.50
2022-11-17T06:10:41.414Z,10.30
2022-11-17T06:13:15.166Z,9.80
2022-11-17T06:15:49.435Z,10.10
2022-11-17T06:18:27.585Z,8.40
2022-11-17T06:21:02.007Z,8.90
2022-11-17T06:23:38.091Z,8.60
2022-11-17T06:26:14.084Z,8.40
2022-11-17T06:28:52.365Z,8.00
2022-11-17T06:31:28.604Z,8.00
2022-11-17T06:34:05.112Z,7.30
2022-11-17T06:36:38.796Z,7.40
2022-11-17T06:39:12.487Z,7.70
2022-11-17T06:41:46.300Z,8.20
2022-11-17T06:44:20.525Z,7.50
2022-11-17T06:46:54.791Z,7.00
2022-11-17T06:49:28.697Z,7.20
2022-11-17T06:52:02.594Z,8.10
2022-11-17T06:54:36.932Z,8.50
2022-11-17T06:57:11.069Z,7.40
2022-11-17T06:59:44.773Z,6.00
2022-11-17T07:02:18.530Z,7.00
2022-11-17T07:04:52.386Z,7.00
2022-11-17T07:07:26.376Z,7.90
2022-11-17T07:10:00.311Z,7.20
2022-11-17T07:12:34.408Z,6.20
2022-11-17T07:15:10.879Z,7.60
2022-11-17T07:17:44.670Z,7.10
2022-11-17T07:20:20.277Z,6.70
2022-11-17T07:22:58.971Z,7.50
2022-11-17T07:25:33.052Z,5.80
2022-11-17T07:28:07.291Z,6.50
2022-11-17T07:30:41.071Z,6.10
2022-11-17T07:33:15.083Z,7.20
2022-11-17T07:35:49.034Z,5.50
2022-11-17T07:38:23.489Z,7.20
2022-11-17T07:41:00.409Z,5.90
2022-11-17T07:43:36.371Z,6.50
2022-11-17T07:46:12.639Z,6.80
2022-11-17T07:48:47.130Z,7.60
2022-11-17T07:51:21.238Z,7.30
2022-11-17T07:53:55.050Z,6.70
2022-11-17T07:56:28.868Z,6.60
2022-11-17T07:59:05.220Z,6.40
2022-11-17T08:01:44.632Z,6.50
2022-11-17T08:04:18.751Z,5.90
2022-11-17T08:06:53.321Z,5.40
2022-11-17T08:09:28.513Z,5.20
2022-11-17T08:12:02.969Z,4.60
2022-11-17T08:14:37.147Z,5.50
2022-11-17T08:17:11.314Z,5.30
2022-11-17T08:19:45.043Z,5.70
2022-11-17T08:22:18.951Z,5.20
2022-11-17T08:24:53.125Z,6.70
2022-11-17T08:27:27.799Z,6.50
2022-11-17T08:30:03.306Z,6.90
2022-11-17T08:32:37.515Z,6.40
2022-11-17T08:35:12.811Z,6.70
2022-11-17T08:37:58.398Z,7.60
2022-11-17T08:40:33.572Z,6.00
2022-11-17T08:43:07.673Z,6.30
2022-11-17T08:45:41.992Z,6.70
2022-11-17T08:48:15.971Z,7.10
2022-11-17T08:50:50.835Z,6.30
2022-11-17T08:53:26.057Z,7.10
2022-11-17T08:56:01.212Z,7.50
2022-11-17T08:58:39.500Z,6.50
2022-11-17T09:01:16.804Z,6.40
2022-11-17T09:03:51.660Z,6.50
2022-11-17T09:06:25.576Z,7.00
2022-11-17T09:08:59.995Z,6.50
2022-11-17T09:11:34.088Z,6.60
2022-11-17T09:14:09.084Z,6.40
2022-11-17T09:16:43.030Z,7.10
2022-11-17T09:19:17.186Z,7.10
2022-11-17T09:21:51.351Z,6.30
2022-11-17T09:24:26.904Z,6.60
2022-11-17T09:27:03.160Z,6.10
2022-11-17T09:29:37.116Z,6.00
2022-11-17T09:32:11.388Z,5.90
2022-11-17T09:34:45.538Z,5.60
2022-11-17T09:37:20.664Z,6.10
2022-11-17T09:39:54.576Z,5.10
2022-11-17T09:42:28.756Z,5.30
2022-11-17T09:45:10.461Z,6.10
2022-11-17T09:47:51.659Z,5.30
2022-11-17T09:50:31.205Z,5.30
2022-11-17T09:53:16.134Z,5.50
2022-11-17T09:55:55.303Z,6.50
2022-11-17T09:58:40.858Z,5.60
2022-11-17T10:01:19.196Z,5.70
2022-11-17T10:03:56.064Z,5.60
2022-11-17T10:06:32.508Z,5.30
2022-11-17T10:09:17.797Z,5.70
2022-11-17T10:11:58.476Z,5.70
2022-11-17T10:14:41.411Z,5.30
2022-11-17T10:17:15.526Z,5.10
2022-11-17T10:19:49.975Z,4.50
2022-11-17T10:22:37.054Z,4.20
2022-11-17T10:25:38.200Z,4.60
2022-11-17T10:28:27.218Z,4.40
2022-11-17T10:31:04.295Z,4.00
2022-11-17T10:33:44.575Z,4.00
2022-11-17T10:36:27.083Z,4.10
2022-11-17T10:39:02.772Z,4.00
2022-11-17T10:41:43.376Z,4.00
2022-11-17T10:44:30.160Z,3.90
2022-11-17T10:47:08.129Z,3.40
2022-11-17T10:49:42.803Z,3.30
2022-11-17T10:52:24.441Z,2.50
2022-11-17T10:55:24.399Z,3.10
2022-11-17T10:58:07.182Z,2.60
2022-11-17T11:00:42.512Z,3.50
2022-11-17T11:03:26.065Z,3.30
2022-11-17T11:06:29.722Z,3.10
2022-11-17T11:09:12.205Z,3.10
2022-11-17T11:12:16.014Z,3.00
2022-11-17T11:15:20.522Z,2.90
2022-11-17T11:17:54.922Z,2.60
2022-11-17T11:20:46.230Z,3.10
2022-11-17T11:23:37.149Z,3.00
2022-11-17T11:26:30.630Z,3.00
2022-11-17T11:29:17.040Z,2.80
2022-11-17T11:32:16.998Z,3.40
2022-11-17T11:35:21.879Z,2.70
2022-11-17T11:38:05.638Z,3.90
2022-11-17T11:40:46.024Z,2.00
2022-11-17T11:43:39.878Z,2.40
2022-11-17T11:46:24.532Z,2.80
2022-11-17T11:49:13.176Z,2.50
2022-11-17T11:51:52.815Z,2.30
2022-11-17T11:54:41.547Z,2.30
2022-11-17T11:57:21.822Z,2.60
2022-11-17T12:00:04.729Z,1.90
2022-11-17T12:02:52.791Z,2.70
2022-11-17T12:05:41.071Z,4.60
2022-11-17T12:08:25.718Z,5.80
2022-11-17T12:11:28.030Z,6.00
2022-11-17T12:14:03.408Z,6.50
2022-11-17T12:16:43.246Z,7.30
2022-11-17T12:19:52.698Z,7.60
2022-11-17T12:23:07.936Z,6.30
2022-11-17T12:25:54.110Z,6.40
2022-11-17T12:28:38.416Z,6.30
2022-11-17T12:31:27.584Z,5.20
2022-11-17T12:34:32.257Z,6.70
2022-11-17T12:37:27.583Z,5.30
2022-11-17T12:40:31.347Z,7.00
2022-11-17T12:43:26.058Z,5.90
2022-11-17T12:46:14.650Z,4.90
2022-11-17T12:48:59.687Z,5.00
2022-11-17T12:51:46.164Z,4.40
2022-11-17T12:54:34.409Z,5.10
2022-11-17T12:57:14.392Z,4.00
2022-11-17T13:00:10.813Z,4.00
2022-11-17T13:03:00.805Z,3.50
2022-11-17T13:05:35.866Z,3.50
2022-11-17T13:08:30.502Z,3.60
2022-11-17T13:11:17.712Z,3.10
2022-11-17T13:13:54.162Z,3.40
2022-11-17T13:16:28.348Z,2.90
2022-11-17T13:19:02.089Z,2.80
2022-11-17T13:21:37.055Z,2.60
2022-11-17T13:24:29.185Z,2.60
2022-11-17T13:27:09.032Z,2.30
2022-11-17T13:29:43.077Z,2.60
2022-11-17T13:32:31.626Z,2.50
2022-11-17T13:35:19.168Z,2.70
2022-11-17T13:38:17.283Z,2.60
2022-11-17T13:40:53.711Z,2.90
2022-11-17T13:43:30.964Z,2.80
2022-11-17T13:46:06.489Z,3.90
2022-11-17T13:48:43.667Z,3.70
2022-11-17T13:51:33.245Z,3.60
2022-11-17T13:54:18.774Z,4.10
2022-11-17T14:04:40.258Z,7.30
2022-11-17T14:07:30.977Z,7.40
2022-11-17T14:10:28.558Z,7.90
2022-11-17T14:13:33.618Z,9.60
2022-11-17T14:16:18.433Z,9.60
2022-11-17T14:19:06.673Z,9.40
2022-11-17T14:22:01.661Z,8.70
2022-11-17T14:24:36.451Z,8.60
2022-11-17T14:27:36.496Z,7.20
2022-11-17T14:30:18.193Z,7.20
2022-11-17T14:32:52.671Z,7.00
2022-11-17T14:35:26.882Z,7.00
2022-11-17T14:38:01.586Z,6.90
2022-11-17T14:40:36.088Z,6.40
2022-11-17T14:43:10.257Z,6.40
2022-11-17T14:45:44.696Z,6.90
2022-11-17T14:48:20.245Z,6.10
2022-11-17T14:51:01.104Z,6.00
2022-11-17T14:53:39.217Z,5.30
2022-11-17T14:56:20.991Z,5.20
2022-11-17T14:59:00.577Z,5.70
2022-11-17T15:01:38.717Z,5.50
2022-11-17T15:07:13.300Z,4.70
2022-11-17T15:09:47.614Z,4.40
2022-11-17T15:12:22.178Z,4.50
2022-11-17T15:14:57.813Z,5.20
2022-11-17T15:17:35.752Z,5.80
2022-11-17T15:20:12.561Z,5.10
2022-11-17T15:22:46.398Z,5.20
2022-11-17T15:25:20.395Z,4.10
2022-11-17T15:27:54.953Z,5.00
2022-11-17T15:30:29.312Z,4.60
2022-11-17T15:33:03.238Z,3.80
2022-11-17T15:35:37.231Z,4.20
2022-11-17T15:38:11.648Z,4.10
2022-11-17T15:40:45.533Z,4.30
2022-11-17T15:43:19.924Z,4.10
2022-11-17T15:45:54.736Z,3.70
2022-11-17T15:48:28.559Z,3.80
2022-11-17T15:51:05.976Z,4.40
2022-11-17T15:53:41.809Z,4.60
2022-11-17T15:56:20.617Z,5.40
2022-11-17T15:59:01.854Z,4.80
2022-11-17T16:01:37.611Z,5.80
2022-11-17T16:04:16.768Z,5.30
2022-11-17T16:06:51.104Z,5.40
2022-11-17T16:09:26.241Z,4.10
2022-11-17T16:12:02.972Z,4.80
2022-11-17T16:14:37.864Z,6.20
2022-11-17T16:17:12.237Z,5.10
2022-11-17T16:19:46.349Z,5.80
2022-11-17T16:22:20.779Z,5.30
2022-11-17T16:24:55.041Z,5.60
2022-11-17T16:27:29.272Z,5.40
2022-11-17T16:30:03.661Z,5.60
2022-11-17T16:32:38.226Z,4.70
2022-11-17T16:35:12.831Z,4.70
2022-11-17T16:37:47.436Z,5.30
2022-11-17T16:40:22.870Z,6.00
2022-11-17T16:42:59.364Z,4.10
2022-11-17T16:45:39.916Z,6.10
2022-11-17T16:48:14.287Z,4.80
2022-11-17T16:50:49.323Z,5.20
2022-11-17T16:53:24.375Z,5.50
2022-11-17T16:56:03.775Z,4.30
2022-11-17T16:58:39.090Z,5.30
2022-11-17T17:01:18.655Z,4.90
2022-11-17T17:03:56.104Z,5.00
2022-11-17T17:25:30.732Z,7.20
2022-11-17T17:28:05.168Z,6.80
2022-11-17T17:30:39.365Z,6.20
2022-11-17T17:33:13.184Z,5.80
2022-11-17T17:35:47.730Z,6.10
2022-11-17T17:38:22.044Z,6.70
2022-11-17T17:40:56.308Z,6.50
2022-11-17T17:43:30.704Z,6.10
2022-11-17T17:46:09.408Z,5.90
2022-11-17T17:48:48.850Z,5.70
2022-11-17T17:51:27.229Z,4.80
2022-11-17T17:54:02.857Z,5.60
2022-11-17T17:56:38.570Z,4.70
2022-11-17T17:59:14.122Z,5.10
2022-11-17T18:01:50.302Z,6.20
2022-11-17T18:04:25.943Z,6.90
2022-11-17T18:07:01.622Z,7.40
2022-11-17T18:09:36.165Z,6.30
2022-11-17T18:12:11.202Z,4.50
2022-11-17T18:14:46.118Z,4.90
2022-11-17T18:17:20.559Z,5.10
2022-11-17T18:19:55.058Z,5.50
2022-11-17T18:22:29.843Z,6.20
2022-11-17T18:25:07.715Z,6.00
2022-11-17T18:27:42.599Z,7.80
2022-11-17T18:30:18.018Z,6.90
2022-11-17T18:32:52.267Z,5.40
2022-11-17T18:35:27.382Z,6.30
2022-11-17T18:38:01.776Z,6.90
2022-11-17T18:40:36.561Z,5.70
2022-11-17T18:43:10.945Z,5.80
2022-11-17T18:45:44.926Z,5.90
2022-11-17T18:48:19.488Z,6.50
2022-11-17T18:51:18.300Z,4.80
2022-11-17T18:53:49.088Z,6.20
2022-11-17T18:56:26.169Z,7.90
2022-11-17T18:59:00.552Z,6.60
2022-11-17T19:01:35.274Z,6.80
2022-11-17T19:04:10.113Z,7.70
2022-11-17T19:06:44.241Z,5.80
2022-11-17T19:09:19.028Z,6.00
2022-11-17T19:11:55.462Z,6.90
2022-11-17T19:14:30.383Z,6.90
2022-11-17T19:17:04.862Z,7.80
2022-11-17T19:19:39.334Z,7.50
2022-11-17T19:22:13.641Z,7.40
2022-11-17T19:24:47.745Z,8.00
2022-11-17T19:27:21.880Z,8.60
2022-11-17T19:29:56.140Z,9.00
2022-11-17T19:32:30.476Z,8.70
2022-11-17T19:35:14.604Z,8.20
2022-11-17T19:37:50.571Z,8.70
2022-11-17T19:40:24.825Z,8.20
2022-11-17T19:42:58.983Z,8.80
2022-11-17T19:45:33.046Z,9.10
2022-11-17T19:48:07.475Z,7.60
2022-11-17T19:50:41.485Z,9.30
2022-11-17T19:53:15.351Z,8.00
2022-11-17T19:55:49.910Z,8.00
2022-11-17T19:58:25.157Z,7.90
2022-11-17T20:00:59.313Z,8.00
2022-11-17T20:03:34.518Z,9.10
2022-11-17T20:06:09.970Z,8.00
2022-11-17T20:08:44.782Z,5.90
2022-11-17T20:11:21.667Z,7.10
2022-11-17T20:13:56.401Z,7.70
2022-11-17T20:16:32.227Z,7.30
2022-11-17T20:19:06.468Z,8.50
2022-11-17T20:21:40.172Z,8.30
2022-11-17T20:24:15.170Z,6.90
2022-11-17T20:26:49.473Z,6.50
2022-11-17T20:29:24.082Z,7.80
2022-11-17T20:31:57.898Z,8.20
2022-11-17T20:34:31.855Z,8.90
2022-11-17T20:37:06.195Z,8.20
2022-11-17T20:39:40.139Z,8.20
2022-11-17T20:42:14.458Z,8.00
2022-11-17T20:44:49.829Z,7.40
2022-11-17T20:47:27.681Z,7.80
2022-11-17T20:50:01.936Z,8.20
2022-11-17T20:52:36.736Z,8.50
2022-11-17T20:55:12.256Z,7.90
2022-11-17T20:57:47.092Z,7.90
2022-11-17T21:00:23.049Z,7.90
2022-11-17T21:02:58.243Z,8.30
2022-11-17T21:05:32.397Z,8.60
2022-11-17T21:08:07.511Z,8.50
2022-11-17T21:10:41.825Z,7.40
2022-11-17T21:13:16.198Z,7.50
2022-11-17T21:16:00.959Z,8.70
2022-11-17T21:18:36.103Z,8.70
2022-11-17T21:21:11.785Z,8.60
2022-11-17T21:23:48.060Z,6.90
2022-11-17T21:26:23.504Z,8.00
2022-11-17T21:29:03.331Z,7.80
2022-11-17T21:31:41.302Z,8.30
2022-11-17T21:34:21.107Z,8.70
2022-11-17T21:36:56.333Z,8.20
2022-11-17T21:39:31.313Z,8.60
2022-11-17T21:42:06.288Z,8.30
2022-11-17T21:44:41.532Z,8.60
2022-11-17T21:47:16.157Z,8.50
2022-11-17T21:49:50.836Z,8.80
2022-11-17T21:52:25.340Z,7.90
2022-11-17T21:55:00.060Z,8.50
2022-11-17T21:57:34.769Z,9.00
2022-11-17T22:00:12.519Z,8.30
2022-11-17T22:02:47.595Z,9.00
2022-11-17T22:05:22.694Z,8.80
2022-11-17T22:07:57.316Z,8.90
2022-11-17T22:10:32.475Z,8.60
2022-11-17T22:13:08.413Z,9.50
2022-11-17T22:15:42.587Z,7.80
2022-11-17T22:18:17.018Z,7.50
2022-11-17T22:20:56.366Z,6.90
2022-11-17T22:23:32.090Z,7.40
2022-11-17T22:26:08.354Z,7.30
2022-11-17T22:28:42.925Z,7.80
2022-11-17T22:31:17.104Z,8.10
2022-11-17T22:33:52.550Z,6.90
2022-11-17T22:36:26.410Z,7.30
2022-11-17T22:39:00.550Z,7.50
2022-11-17T22:41:35.209Z,6.00
2022-11-17T22:44:13.854Z,8.00
2022-11-17T22:46:49.379Z,6.80
2022-11-17T22:49:24.644Z,6.70
2022-11-17T22:52:06.099Z,7.80
2022-11-17T22:54:41.419Z,5.30
2022-11-17T22:57:15.785Z,6.90
2022-11-17T22:59:49.643Z,6.30
2022-11-17T23:02:23.667Z,6.30
2022-11-17T23:04:57.540Z,7.30
2022-11-17T23:07:31.736Z,8.00
2022-11-17T23:10:06.422Z,7.30
2022-11-17T23:12:40.972Z,7.20
2022-11-17T23:15:14.968Z,7.00
2022-11-17T23:17:50.287Z,6.50
2022-11-17T23:20:26.085Z,7.30
2022-11-17T23:23:00.148Z,8.20
2022-11-17T23:25:34.050Z,6.70
2022-11-17T23:28:08.486Z,7.30
2022-11-17T23:30:42.620Z,6.90
2022-11-17T23:33:16.801Z,6.80
2022-11-17T23:35:50.960Z,5.30
2022-11-17T23:38:24.702Z,6.50
2022-11-17T23:41:04.415Z,6.90
2022-11-17T23:43:38.744Z,5.50
2022-11-17T23:46:16.292Z,6.80
2022-11-17T23:48:51.000Z,6.00
2022-11-17T23:51:27.505Z,6.40
2022-11-17T23:54:02.960Z,5.20
2022-11-17T23:56:37.840Z,5.80
2022-11-17T23:59:12.267Z,6.90
